createdAt,value
2022-09-15T00:01:11.693Z,2.60
2022-09-15T00:03:40.189Z,2.37
2022-09-15T00:06:08.852Z,2.43
2022-09-15T00:08:36.944Z,2.80
2022-09-15T00:11:11.032Z,2.45
2022-09-15T00:13:40.020Z,2.72
2022-09-15T00:16:13.519Z,2.72
2022-09-15T00:18:43.200Z,3.20
2022-09-15T00:21:20.719Z,2.92
2022-09-15T00:23:49.662Z,3.12
2022-09-15T00:26:20.928Z,2.87
2022-09-15T00:28:48.987Z,3.37
2022-09-15T00:31:19.636Z,3.27
2022-09-15T00:33:52.633Z,3.80
2022-09-15T00:36:21.908Z,3.10
2022-09-15T00:38:49.684Z,3.85
2022-09-15T00:41:19.847Z,3.62
2022-09-15T00:43:55.345Z,3.50
2022-09-15T00:46:34.821Z,4.00
2022-09-15T00:49:07.644Z,3.87
2022-09-15T00:51:48.724Z,3.65
2022-09-15T00:54:25.569Z,3.67
2022-09-15T00:56:55.544Z,3.83
2022-09-15T00:59:25.547Z,3.95
2022-09-15T01:02:13.910Z,3.65
2022-09-15T01:04:42.835Z,3.87
2022-09-15T01:07:14.504Z,3.80
2022-09-15T01:09:56.719Z,3.67
2022-09-15T01:12:25.900Z,3.50
2022-09-15T01:14:53.892Z,3.58
2022-09-15T01:17:46.505Z,3.40
2022-09-15T01:20:55.940Z,3.10
2022-09-15T01:23:32.516Z,3.27
2022-09-15T01:26:13.788Z,3.25
2022-09-15T01:28:43.675Z,3.25
2022-09-15T01:31:25.361Z,3.20
2022-09-15T01:34:06.530Z,3.03
2022-09-15T01:36:38.672Z,3.37
2022-09-15T01:39:14.103Z,3.17
2022-09-15T01:41:48.587Z,2.97
2022-09-15T01:44:23.430Z,3.72
2022-09-15T01:46:58.280Z,3.30
2022-09-15T01:49:28.324Z,3.80
2022-09-15T01:51:56.615Z,4.57
2022-09-15T01:54:27.792Z,3.70
2022-09-15T01:56:56.227Z,3.03
2022-09-15T01:59:24.302Z,2.80
2022-09-15T02:02:05.978Z,2.93
2022-09-15T02:04:36.741Z,3.00
2022-09-15T02:07:15.385Z,2.62
2022-09-15T02:09:56.969Z,2.85
2022-09-15T02:12:34.910Z,2.90
2022-09-15T02:15:08.657Z,2.50
2022-09-15T02:17:43.700Z,2.72
2022-09-15T02:20:20.241Z,2.42
2022-09-15T02:22:53.206Z,2.22
2022-09-15T02:25:46.011Z,2.20
2022-09-15T02:28:14.344Z,2.50
2022-09-15T02:30:43.288Z,2.87
2022-09-15T02:33:19.717Z,2.60
2022-09-15T02:35:47.902Z,2.50
2022-09-15T02:38:15.924Z,2.22
2022-09-15T02:40:44.800Z,1.83
2022-09-15T02:43:15.955Z,2.35
2022-09-15T02:45:44.129Z,2.47
2022-09-15T02:48:12.287Z,2.40
2022-09-15T02:50:41.192Z,2.12
2022-09-15T02:53:09.150Z,2.20
2022-09-15T02:55:37.180Z,1.90
2022-09-15T02:58:04.955Z,2.17
2022-09-15T03:00:33.496Z,1.83
2022-09-15T03:03:01.854Z,1.87
2022-09-15T03:05:30.280Z,1.87
2022-09-15T03:07:58.152Z,2.00
2022-09-15T03:10:26.539Z,1.80
2022-09-15T03:12:55.209Z,2.03
2022-09-15T03:15:25.049Z,1.90
2022-09-15T03:17:53.924Z,1.63
2022-09-15T03:20:24.378Z,1.65
2022-09-15T03:22:52.270Z,1.70
2022-09-15T03:25:20.760Z,1.23
2022-09-15T03:27:48.446Z,1.15
2022-09-15T03:30:16.340Z,0.90
2022-09-15T03:32:44.312Z,1.20
2022-09-15T03:35:12.121Z,1.40
2022-09-15T03:37:39.757Z,1.00
2022-09-15T03:40:10.412Z,1.00
2022-09-15T03:42:38.514Z,1.40
2022-09-15T03:45:06.947Z,1.20
2022-09-15T03:47:35.187Z,1.20
2022-09-15T03:50:02.984Z,1.20
2022-09-15T03:52:32.150Z,0.90
2022-09-15T03:55:00.249Z,1.10
2022-09-15T03:57:28.055Z,1.42
2022-09-15T03:59:55.901Z,0.90
2022-09-15T04:02:24.257Z,0.95
2022-09-15T04:04:52.627Z,1.50
2022-09-15T04:07:20.785Z,1.60
2022-09-15T04:09:48.735Z,1.27
2022-09-15T04:12:17.185Z,1.30
2022-09-15T04:14:45.786Z,1.35
2022-09-15T04:17:15.478Z,1.55
2022-09-15T04:19:43.307Z,1.33
2022-09-15T04:22:15.540Z,1.15
2022-09-15T04:24:48.033Z,1.37
2022-09-15T04:27:16.797Z,1.12
2022-09-15T04:29:44.976Z,1.20
2022-09-15T04:32:13.015Z,1.37
2022-09-15T04:34:41.603Z,1.30
2022-09-15T04:37:09.235Z,1.15
2022-09-15T04:39:37.446Z,1.42
2022-09-15T04:42:07.869Z,1.62
2022-09-15T04:44:36.046Z,1.57
2022-09-15T04:47:04.404Z,1.83
2022-09-15T04:49:32.236Z,1.40
2022-09-15T04:51:59.911Z,1.87
2022-09-15T04:54:28.173Z,2.00
2022-09-15T04:56:56.133Z,1.60
2022-09-15T04:59:23.752Z,1.40
2022-09-15T05:01:55.132Z,1.70
2022-09-15T05:04:23.004Z,1.83
2022-09-15T05:06:50.934Z,2.00
2022-09-15T05:09:18.365Z,1.60
2022-09-15T05:11:46.163Z,1.90
2022-09-15T05:14:14.135Z,1.70
2022-09-15T05:16:41.994Z,2.00
2022-09-15T05:19:10.367Z,1.75
2022-09-15T05:21:38.561Z,1.70
2022-09-15T05:24:06.410Z,2.08
2022-09-15T05:26:34.256Z,1.98
2022-09-15T05:29:02.294Z,1.90
2022-09-15T05:31:32.257Z,1.92
2022-09-15T05:34:02.720Z,2.40
2022-09-15T05:36:31.298Z,2.28
2022-09-15T05:38:59.126Z,2.10
2022-09-15T05:41:27.947Z,2.25
2022-09-15T05:43:57.382Z,2.00
2022-09-15T05:46:26.209Z,2.30
2022-09-15T05:48:55.912Z,2.12
2022-09-15T05:51:24.114Z,2.10
2022-09-15T05:53:52.174Z,2.20
2022-09-15T05:56:20.248Z,2.65
2022-09-15T05:58:49.099Z,2.13
2022-09-15T06:01:27.890Z,2.28
2022-09-15T06:03:57.031Z,2.12
2022-09-15T06:06:28.829Z,2.65
2022-09-15T06:08:58.963Z,2.03
2022-09-15T06:11:33.752Z,2.27
2022-09-15T06:14:03.635Z,2.85
2022-09-15T06:16:33.708Z,2.90
2022-09-15T06:19:02.210Z,2.50
2022-09-15T06:21:31.190Z,3.15
2022-09-15T06:24:01.141Z,2.57
2022-09-15T06:26:29.450Z,3.47
2022-09-15T06:29:00.519Z,3.72
2022-09-15T06:31:31.471Z,4.03
2022-09-15T06:34:00.651Z,3.35
2022-09-15T06:36:29.706Z,2.70
2022-09-15T06:38:58.430Z,2.95
2022-09-15T06:41:35.344Z,3.03
2022-09-15T06:44:18.527Z,2.50
2022-09-15T06:46:46.459Z,3.20
2022-09-15T06:49:14.330Z,2.97
2022-09-15T06:51:42.142Z,2.83
2022-09-15T06:54:10.133Z,2.50
2022-09-15T06:56:38.419Z,2.90
2022-09-15T06:59:06.706Z,3.10
2022-09-15T07:01:35.128Z,2.83
2022-09-15T07:04:05.592Z,2.92
2022-09-15T07:06:33.885Z,2.92
2022-09-15T07:09:02.651Z,3.12
2022-09-15T07:11:31.506Z,3.10
2022-09-15T07:13:59.561Z,3.20
2022-09-15T07:16:27.750Z,3.22
2022-09-15T07:19:01.857Z,3.33
2022-09-15T07:21:30.105Z,3.10
2022-09-15T07:23:58.332Z,3.47
2022-09-15T07:26:28.053Z,2.63
2022-09-15T07:29:01.694Z,2.78
2022-09-15T07:31:31.566Z,2.67
2022-09-15T07:34:00.967Z,2.90
2022-09-15T07:36:29.624Z,2.45
2022-09-15T07:38:57.857Z,2.60
2022-09-15T07:41:30.627Z,2.33
2022-09-15T07:44:00.385Z,2.10
2022-09-15T07:46:31.860Z,2.10
2022-09-15T07:49:00.693Z,1.80
2022-09-15T07:51:28.941Z,2.00
2022-09-15T07:53:57.150Z,1.80
2022-09-15T07:56:25.109Z,1.62
2022-09-15T07:58:52.959Z,1.70
2022-09-15T08:01:22.489Z,1.27
2022-09-15T08:03:52.085Z,1.30
2022-09-15T08:06:25.178Z,1.48
2022-09-15T08:08:59.243Z,1.00
2022-09-15T08:11:28.527Z,1.12
2022-09-15T08:13:56.778Z,1.12
2022-09-15T08:16:25.098Z,1.10
2022-09-15T08:18:53.692Z,1.10
2022-09-15T08:21:22.638Z,1.10
2022-09-15T08:23:52.627Z,1.20
2022-09-15T08:26:20.376Z,0.88
2022-09-15T08:28:48.939Z,1.00
2022-09-15T08:31:17.024Z,0.90
2022-09-15T08:33:52.349Z,1.10
2022-09-15T08:36:20.520Z,1.33
2022-09-15T08:38:48.313Z,0.77
2022-09-15T08:41:34.582Z,1.10
2022-09-15T08:44:08.445Z,1.40
2022-09-15T08:46:49.208Z,1.17
2022-09-15T08:49:47.488Z,1.30
2022-09-15T08:52:23.694Z,1.30
2022-09-15T08:54:52.524Z,1.10
2022-09-15T08:57:23.643Z,0.82
2022-09-15T08:59:52.044Z,1.15
2022-09-15T09:02:38.514Z,1.77
2022-09-15T09:05:18.893Z,0.70
2022-09-15T09:08:06.953Z,1.97
2022-09-15T09:10:42.123Z,0.88
2022-09-15T09:13:35.252Z,1.15
2022-09-15T09:16:25.534Z,1.00
2022-09-15T09:19:32.257Z,0.68
2022-09-15T09:22:05.862Z,0.70
2022-09-15T09:24:39.909Z,1.33
2022-09-15T09:27:24.633Z,0.77
2022-09-15T09:30:07.752Z,0.90
2022-09-15T09:32:44.784Z,0.98
2022-09-15T09:35:33.787Z,1.37
2022-09-15T09:38:02.525Z,1.45
2022-09-15T09:40:34.483Z,0.90
2022-09-15T09:43:02.705Z,1.12
2022-09-15T09:45:30.685Z,0.90
2022-09-15T09:48:01.949Z,1.20
2022-09-15T09:50:38.882Z,1.30
2022-09-15T09:53:26.678Z,0.93
2022-09-15T09:55:56.028Z,0.98
2022-09-15T09:58:25.535Z,0.70
2022-09-15T10:00:53.436Z,0.87
2022-09-15T10:03:23.984Z,1.10
2022-09-15T10:06:02.126Z,0.95
2022-09-15T10:08:30.536Z,1.27
2022-09-15T10:11:06.880Z,0.88
2022-09-15T10:13:36.336Z,1.50
2022-09-15T10:16:05.906Z,1.12
2022-09-15T10:18:38.181Z,1.15
2022-09-15T10:21:08.711Z,1.30
2022-09-15T10:23:36.746Z,1.05
2022-09-15T10:26:34.240Z,0.97
2022-09-15T10:29:15.027Z,0.88
2022-09-15T10:31:44.613Z,0.98
2022-09-15T10:34:28.433Z,1.08
2022-09-15T10:37:30.284Z,0.95
2022-09-15T10:40:01.285Z,1.17
2022-09-15T10:42:37.800Z,1.08
2022-09-15T10:45:16.193Z,0.90
2022-09-15T10:48:21.503Z,1.00
2022-09-15T10:51:27.944Z,1.20
2022-09-15T10:54:07.651Z,1.93
2022-09-15T10:56:42.532Z,1.15
2022-09-15T10:59:16.032Z,1.00
2022-09-15T11:01:58.206Z,1.17
2022-09-15T11:04:36.442Z,1.12
2022-09-15T11:07:40.119Z,1.17
2022-09-15T11:10:29.582Z,0.90
2022-09-15T11:13:13.504Z,1.17
2022-09-15T11:15:47.386Z,1.50
2022-09-15T11:18:33.872Z,1.30
2022-09-15T11:21:06.982Z,1.30
2022-09-15T11:24:22.505Z,1.08
2022-09-15T11:27:14.736Z,0.93
2022-09-15T11:30:03.292Z,1.10
2022-09-15T11:32:55.745Z,1.30
2022-09-15T11:35:33.476Z,1.20
2022-09-15T11:38:20.014Z,1.77
2022-09-15T11:40:56.017Z,1.80
2022-09-15T11:43:23.595Z,1.70
2022-09-15T11:45:54.916Z,2.00
2022-09-15T11:48:37.222Z,1.97
2022-09-15T11:51:06.846Z,2.20
2022-09-15T11:53:52.244Z,2.30
2022-09-15T11:56:26.601Z,2.65
2022-09-15T11:59:17.148Z,2.80
2022-09-15T12:02:06.690Z,1.70
2022-09-15T12:04:40.617Z,1.83
2022-09-15T12:07:13.799Z,2.37
2022-09-15T12:09:43.016Z,2.40
2022-09-15T12:12:17.209Z,2.55
2022-09-15T12:14:47.096Z,2.77
2022-09-15T12:17:33.950Z,3.00
2022-09-15T12:20:06.806Z,3.20
2022-09-15T12:22:45.197Z,3.35
2022-09-15T12:25:18.028Z,2.97
2022-09-15T12:28:23.987Z,3.27
2022-09-15T12:31:23.536Z,2.90
2022-09-15T12:34:03.726Z,3.05
2022-09-15T12:36:45.926Z,3.03
2022-09-15T12:39:19.743Z,2.72
2022-09-15T12:41:54.479Z,4.30
2022-09-15T12:44:26.901Z,2.62
2022-09-15T12:46:56.434Z,1.80
2022-09-15T12:49:44.527Z,2.03
2022-09-15T12:52:12.955Z,1.33
2022-09-15T12:54:43.235Z,0.80
2022-09-15T12:57:26.038Z,1.30
2022-09-15T13:00:20.062Z,1.00
2022-09-15T13:02:51.967Z,0.90
2022-09-15T13:05:41.766Z,1.08
2022-09-15T13:08:11.976Z,1.30
2022-09-15T13:10:42.985Z,1.20
2022-09-15T13:13:28.712Z,1.12
2022-09-15T13:16:01.140Z,1.08
2022-09-15T13:18:30.102Z,0.98
2022-09-15T13:21:07.117Z,1.73
2022-09-15T13:23:38.593Z,1.30
2022-09-15T13:26:09.371Z,1.30
2022-09-15T13:28:37.801Z,1.58
2022-09-15T13:31:11.749Z,1.37
2022-09-15T13:40:22.315Z,1.10
2022-09-15T13:43:04.969Z,1.23
2022-09-15T13:46:14.985Z,1.40
2022-09-15T13:48:48.260Z,1.30
2022-09-15T13:51:25.187Z,1.50
2022-09-15T13:54:06.790Z,1.50
2022-09-15T13:56:38.663Z,1.23
2022-09-15T13:59:13.920Z,1.50
2022-09-15T14:01:42.516Z,1.43
2022-09-15T14:04:15.215Z,1.67
2022-09-15T14:07:02.887Z,1.70
2022-09-15T14:09:38.626Z,1.80
2022-09-15T14:12:12.086Z,1.77
2022-09-15T14:14:45.525Z,2.20
2022-09-15T14:17:24.037Z,2.17
2022-09-15T14:19:57.517Z,2.55
2022-09-15T14:22:26.531Z,3.00
2022-09-15T14:24:56.285Z,2.30
2022-09-15T14:27:29.638Z,2.43
2022-09-15T14:30:02.579Z,2.80
2022-09-15T14:32:31.541Z,2.60
2022-09-15T14:35:00.572Z,2.00
2022-09-15T14:37:29.366Z,2.28
2022-09-15T14:40:00.961Z,2.20
2022-09-15T14:42:32.532Z,1.83
2022-09-15T14:48:01.132Z,1.92
2022-09-15T14:50:32.910Z,1.37
2022-09-15T14:53:06.297Z,1.33
2022-09-15T14:55:43.385Z,2.42
2022-09-15T14:58:16.027Z,3.05
2022-09-15T15:01:10.179Z,2.83
2022-09-15T15:03:45.146Z,2.30
2022-09-15T15:06:42.002Z,2.93
2022-09-15T15:09:24.050Z,1.67
2022-09-15T15:11:54.796Z,2.00
2022-09-15T15:17:02.560Z,1.80
2022-09-15T15:19:41.612Z,1.47
2022-09-15T15:22:12.216Z,1.62
2022-09-15T15:24:41.591Z,1.50
2022-09-15T15:27:33.927Z,1.50
2022-09-15T15:30:23.820Z,1.83
2022-09-15T15:32:51.907Z,2.30
2022-09-15T15:35:20.365Z,2.17
2022-09-15T15:37:48.021Z,2.78
2022-09-15T15:40:21.101Z,2.28
2022-09-15T15:42:56.512Z,2.50
2022-09-15T15:45:32.513Z,2.30
2022-09-15T15:48:03.028Z,2.30
2022-09-15T15:50:32.416Z,2.17
2022-09-15T15:53:00.864Z,2.20
2022-09-15T15:55:40.763Z,2.45
2022-09-15T15:58:10.455Z,2.73
2022-09-15T16:00:52.513Z,2.67
2022-09-15T16:03:21.144Z,2.85
2022-09-15T16:05:51.601Z,3.12
2022-09-15T16:08:30.092Z,2.62
2022-09-15T16:11:00.426Z,2.47
2022-09-15T16:13:28.459Z,2.90
2022-09-15T16:15:57.888Z,2.70
2022-09-15T16:18:26.036Z,2.37
2022-09-15T16:20:53.796Z,3.00
2022-09-15T16:23:23.022Z,2.27
2022-09-15T16:25:57.591Z,2.10
2022-09-15T16:28:25.124Z,2.12
2022-09-15T16:30:53.030Z,1.92
2022-09-15T16:33:21.300Z,2.12
2022-09-15T16:35:53.511Z,1.70
2022-09-15T16:38:25.356Z,2.00
2022-09-15T16:40:52.959Z,2.45
2022-09-15T16:43:21.776Z,2.40
2022-09-15T16:45:50.052Z,2.60
2022-09-15T16:48:18.480Z,2.50
2022-09-15T16:51:16.814Z,2.15
2022-09-15T16:53:36.213Z,2.17
2022-09-15T16:56:04.227Z,3.72
2022-09-15T16:58:31.749Z,3.15
2022-09-15T17:00:59.592Z,4.23
2022-09-15T17:03:27.695Z,3.72
2022-09-15T17:05:59.753Z,4.37
2022-09-15T17:08:32.603Z,4.03
2022-09-15T17:11:02.193Z,5.60
2022-09-15T17:13:32.221Z,5.07
2022-09-15T17:16:01.165Z,4.95
2022-09-15T17:18:29.224Z,4.40
2022-09-15T17:20:57.020Z,3.65
2022-09-15T17:23:27.705Z,3.55
2022-09-15T17:25:58.479Z,4.60
2022-09-15T17:28:28.984Z,4.45
2022-09-15T17:30:58.805Z,6.00
2022-09-15T17:33:27.618Z,6.45
2022-09-15T17:35:55.355Z,6.87
2022-09-15T17:38:23.368Z,6.47
2022-09-15T17:40:51.835Z,7.80
2022-09-15T17:43:21.768Z,6.65
2022-09-15T17:45:50.085Z,6.00
2022-09-15T17:48:18.094Z,6.50
2022-09-15T17:50:49.348Z,6.07
2022-09-15T17:53:21.191Z,5.22
2022-09-15T17:55:50.346Z,5.03
2022-09-15T17:58:18.364Z,4.95
2022-09-15T18:00:47.028Z,4.68
2022-09-15T18:03:19.470Z,4.67
2022-09-15T18:05:46.957Z,3.25
2022-09-15T18:08:16.467Z,2.50
2022-09-15T18:10:44.481Z,2.80
2022-09-15T18:13:18.236Z,1.95
2022-09-15T18:15:46.443Z,1.90
2022-09-15T18:18:17.174Z,1.77
2022-09-15T18:20:44.813Z,1.70
2022-09-15T18:23:30.734Z,1.77
2022-09-15T18:25:58.361Z,1.40
2022-09-15T18:28:26.118Z,2.03
2022-09-15T18:30:53.663Z,1.17
2022-09-15T18:33:25.460Z,1.50
2022-09-15T18:35:56.590Z,1.60
2022-09-15T18:38:25.016Z,1.30
2022-09-15T18:40:55.362Z,1.70
2022-09-15T18:43:25.163Z,1.35
2022-09-15T18:45:57.769Z,1.27
2022-09-15T18:48:25.417Z,1.10
2022-09-15T18:50:53.474Z,1.30
2022-09-15T18:53:20.949Z,1.80
2022-09-15T18:55:48.486Z,1.20
2022-09-15T18:58:17.677Z,1.20
2022-09-15T19:00:45.957Z,1.40
2022-09-15T19:03:14.319Z,1.50
2022-09-15T19:05:42.744Z,1.50
2022-09-15T19:08:11.379Z,1.83
2022-09-15T19:10:41.582Z,1.70
2022-09-15T19:13:11.477Z,1.52
2022-09-15T19:15:39.746Z,2.20
2022-09-15T19:18:07.353Z,2.70
2022-09-15T19:20:35.277Z,2.60
2022-09-15T19:23:02.961Z,2.28
2022-09-15T19:25:30.490Z,2.53
2022-09-15T19:27:58.234Z,2.60
2022-09-15T19:30:25.741Z,2.40
2022-09-15T19:32:53.529Z,2.22
2022-09-15T19:35:21.467Z,2.15
2022-09-15T19:37:49.180Z,2.08
2022-09-15T19:40:16.962Z,2.80
2022-09-15T19:42:45.221Z,2.93
2022-09-15T19:45:13.092Z,3.08
2022-09-15T19:47:41.006Z,3.40
2022-09-15T19:50:12.052Z,3.42
2022-09-15T19:52:39.740Z,3.42
2022-09-15T19:55:09.564Z,4.10
2022-09-15T19:57:39.703Z,4.07
2022-09-15T20:00:08.726Z,4.18
2022-09-15T20:02:36.816Z,4.15
2022-09-15T20:05:04.997Z,3.97
2022-09-15T20:07:32.750Z,3.80
2022-09-15T20:10:00.926Z,3.83
2022-09-15T20:12:28.467Z,3.87
2022-09-15T20:14:55.993Z,3.75
2022-09-15T20:17:23.737Z,3.78
2022-09-15T20:19:52.047Z,3.77
2022-09-15T20:22:19.521Z,3.85
2022-09-15T20:24:47.413Z,3.53
2022-09-15T20:27:14.930Z,3.70
2022-09-15T20:29:43.533Z,3.50
2022-09-15T20:32:11.599Z,3.00
2022-09-15T20:34:39.178Z,3.58
2022-09-15T20:37:07.152Z,2.80
2022-09-15T20:39:35.768Z,3.20
2022-09-15T20:42:03.411Z,2.83
2022-09-15T20:44:30.865Z,3.20
2022-09-15T20:46:58.636Z,3.08
2022-09-15T20:49:26.884Z,3.17
2022-09-15T20:51:54.485Z,3.45
2022-09-15T20:54:22.337Z,3.60
2022-09-15T20:56:49.811Z,3.37
2022-09-15T20:59:17.380Z,3.55
2022-09-15T21:01:46.476Z,3.40
2022-09-15T21:04:13.916Z,3.12
2022-09-15T21:06:41.364Z,3.47
2022-09-15T21:09:09.467Z,3.30
2022-09-15T21:11:37.092Z,3.08
2022-09-15T21:14:04.917Z,3.42
2022-09-15T21:16:34.919Z,3.20
2022-09-15T21:19:02.772Z,3.40
2022-09-15T21:21:32.342Z,3.37
2022-09-15T21:24:03.911Z,3.40
2022-09-15T21:26:31.535Z,3.10
2022-09-15T21:28:59.085Z,2.78
2022-09-15T21:31:29.424Z,3.15
2022-09-15T21:33:57.804Z,3.17
2022-09-15T21:36:27.903Z,3.45
2022-09-15T21:38:56.875Z,3.37
2022-09-15T21:41:27.567Z,3.37
2022-09-15T21:43:55.573Z,2.70
2022-09-15T21:46:25.386Z,3.17
2022-09-15T21:48:53.170Z,3.20
2022-09-15T21:51:24.644Z,3.40
2022-09-15T21:53:54.355Z,2.70
2022-09-15T21:56:22.585Z,3.67
2022-09-15T21:58:50.026Z,3.23
2022-09-15T22:01:21.820Z,3.40
2022-09-15T22:03:51.698Z,3.22
2022-09-15T22:06:20.956Z,3.53
2022-09-15T22:08:49.013Z,3.50
2022-09-15T22:11:16.608Z,3.60
2022-09-15T22:13:44.687Z,2.78
2022-09-15T22:16:15.890Z,3.55
2022-09-15T22:18:43.959Z,3.87
2022-09-15T22:21:23.441Z,3.40
2022-09-15T22:23:52.002Z,3.53
2022-09-15T22:26:21.569Z,3.60
2022-09-15T22:28:49.084Z,3.85
2022-09-15T22:31:18.502Z,4.45
2022-09-15T22:33:46.655Z,3.90
2022-09-15T22:36:19.226Z,3.93
2022-09-15T22:38:47.266Z,3.53
2022-09-15T22:41:16.656Z,4.15
2022-09-15T22:43:47.893Z,3.65
2022-09-15T22:46:17.047Z,4.25
2022-09-15T22:48:45.023Z,3.47
2022-09-15T22:51:12.615Z,4.05
2022-09-15T22:53:40.481Z,3.83
2022-09-15T22:56:14.512Z,3.92
2022-09-15T22:58:46.297Z,4.40
2022-09-15T23:01:17.214Z,3.97
2022-09-15T23:03:47.566Z,4.20
2022-09-15T23:06:15.026Z,3.58
2022-09-15T23:08:42.656Z,3.80
2022-09-15T23:11:13.114Z,4.00
2022-09-15T23:13:41.445Z,3.40
2022-09-15T23:16:13.963Z,3.50
2022-09-15T23:18:41.818Z,3.17
2022-09-15T23:21:11.037Z,3.00
2022-09-15T23:23:41.006Z,3.30
2022-09-15T23:26:10.409Z,3.10
2022-09-15T23:28:39.234Z,3.30
2022-09-15T23:31:08.482Z,3.80
2022-09-15T23:33:36.416Z,3.05
2022-09-15T23:36:05.764Z,2.72
2022-09-15T23:38:35.984Z,2.70
2022-09-15T23:41:04.156Z,2.90
2022-09-15T23:43:33.205Z,2.90
2022-09-15T23:46:01.201Z,3.10
2022-09-15T23:48:28.957Z,2.78
2022-09-15T23:50:56.495Z,2.33
2022-09-15T23:53:24.236Z,2.30
2022-09-15T23:55:52.185Z,2.00
2022-09-15T23:58:19.712Z,1.87
